sensor_id;sensor_type;location;lat;lon;timestamp;pressure;altitude;pressure_sealevel;temperature;humidity
43745;BME280;29359;53.048;8.732;2023-04-02T00:00:28;101552.78;;;2.92;90.67
43745;BME280;29359;53.048;8.732;2023-04-02T00:02:30;101564.94;;;2.90;90.58
43745;BME280;29359;53.048;8.732;2023-04-02T00:04:32;101568.41;;;2.90;90.69
43745;BME280;29359;53.048;8.732;2023-04-02T00:06:38;101572.69;;;2.87;90.58
43745;BME280;29359;53.048;8.732;2023-04-02T00:08:45;101579.59;;;2.81;90.36
43745;BME280;29359;53.048;8.732;2023-04-02T00:10:55;101581.31;;;2.81;90.38
43745;BME280;29359;53.048;8.732;2023-04-02T00:15:03;101589.06;;;2.76;90.38
43745;BME280;29359;53.048;8.732;2023-04-02T00:17:05;101592.53;;;2.75;90.31
43745;BME280;29359;53.048;8.732;2023-04-02T00:19:12;101599.44;;;2.73;90.62
43745;BME280;29359;53.048;8.732;2023-04-02T00:21:25;101600.25;;;2.69;90.14
43745;BME280;29359;53.048;8.732;2023-04-02T00:23:27;101605.38;;;2.63;89.74
43745;BME280;29359;53.048;8.732;2023-04-02T00:25:33;101608.75;;;2.59;90.18
43745;BME280;29359;53.048;8.732;2023-04-02T00:27:35;101609.63;;;2.60;90.06
43745;BME280;29359;53.048;8.732;2023-04-02T00:29:46;101613.09;;;2.59;90.28
43745;BME280;29359;53.048;8.732;2023-04-02T00:31:49;101619.13;;;2.56;90.21
43745;BME280;29359;53.048;8.732;2023-04-02T00:33:52;101624.28;;;2.53;90.31
43745;BME280;29359;53.048;8.732;2023-04-02T00:35:54;101624.28;;;2.53;90.16
43745;BME280;29359;53.048;8.732;2023-04-02T00:37:56;101622.53;;;2.52;90.45
43745;BME280;29359;53.048;8.732;2023-04-02T00:40:00;101632.09;;;2.51;89.83
43745;BME280;29359;53.048;8.732;2023-04-02T00:42:06;101635.53;;;2.50;89.90
43745;BME280;29359;53.048;8.732;2023-04-02T00:44:13;101638.13;;;2.49;89.75
43745;BME280;29359;53.048;8.732;2023-04-02T00:46:18;101637.22;;;2.47;89.93
43745;BME280;29359;53.048;8.732;2023-04-02T00:50:35;101642.34;;;2.42;89.71
43745;BME280;29359;53.048;8.732;2023-04-02T00:52:42;101650.13;;;2.41;89.74
43745;BME280;29359;53.048;8.732;2023-04-02T00:54:51;101639.72;;;2.41;89.31
43745;BME280;29359;53.048;8.732;2023-04-02T00:56:56;101658.81;;;2.40;89.71
43745;BME280;29359;53.048;8.732;2023-04-02T00:58:59;101658.75;;;2.37;89.62
43745;BME280;29359;53.048;8.732;2023-04-02T01:01:01;101666.56;;;2.37;89.44
43745;BME280;29359;53.048;8.732;2023-04-02T01:07:23;101664.75;;;2.33;89.25
43745;BME280;29359;53.048;8.732;2023-04-02T01:09:45;101669.03;;;2.29;89.27
43745;BME280;29359;53.048;8.732;2023-04-02T01:12:21;101669.00;;;2.28;89.33
43745;BME280;29359;53.048;8.732;2023-04-02T01:14:49;101671.59;;;2.26;89.40
43745;BME280;29359;53.048;8.732;2023-04-02T01:24:19;101680.16;;;2.20;89.17
43745;BME280;29359;53.048;8.732;2023-04-02T01:30:56;101697.38;;;2.14;89.41
43745;BME280;29359;53.048;8.732;2023-04-02T01:32:59;101694.72;;;2.12;89.15
43745;BME280;29359;53.048;8.732;2023-04-02T01:35:01;101708.59;;;2.11;89.31
43745;BME280;29359;53.048;8.732;2023-04-02T01:39:41;101713.75;;;2.08;89.24
43745;BME280;29359;53.048;8.732;2023-04-02T01:44:10;101713.75;;;2.08;88.87
43745;BME280;29359;53.048;8.732;2023-04-02T01:46:26;101721.56;;;2.08;89.02
43745;BME280;29359;53.048;8.732;2023-04-02T01:48:29;101731.13;;;2.09;88.78
43745;BME280;29359;53.048;8.732;2023-04-02T01:50:35;101740.69;;;2.09;88.81
43745;BME280;29359;53.048;8.732;2023-04-02T01:52:41;101745.00;;;2.08;88.53
43745;BME280;29359;53.048;8.732;2023-04-02T01:54:45;101735.47;;;2.09;88.76
43745;BME280;29359;53.048;8.732;2023-04-02T01:56:48;101741.56;;;2.09;88.76
43745;BME280;29359;53.048;8.732;2023-04-02T01:58:51;101743.31;;;2.10;88.85
43745;BME280;29359;53.048;8.732;2023-04-02T02:00:57;101764.16;;;2.10;88.42
43745;BME280;29359;53.048;8.732;2023-04-02T02:03:00;101753.75;;;2.10;88.42
43745;BME280;29359;53.048;8.732;2023-04-02T02:05:02;101760.63;;;2.08;88.50
43745;BME280;29359;53.048;8.732;2023-04-02T02:07:05;101762.38;;;2.08;88.40
43745;BME280;29359;53.048;8.732;2023-04-02T02:09:19;101765.84;;;2.08;88.47
43745;BME280;29359;53.048;8.732;2023-04-02T02:11:26;101770.19;;;2.08;88.34
43745;BME280;29359;53.048;8.732;2023-04-02T02:13:28;101779.72;;;2.07;88.17
43745;BME280;29359;53.048;8.732;2023-04-02T02:15:32;101773.59;;;2.05;88.50
43745;BME280;29359;53.048;8.732;2023-04-02T02:17:34;101777.13;;;2.07;88.20
43745;BME280;29359;53.048;8.732;2023-04-02T02:19:44;101784.97;;;2.09;88.10
43745;BME280;29359;53.048;8.732;2023-04-02T02:21:51;101784.06;;;2.07;87.99
43745;BME280;29359;53.048;8.732;2023-04-02T02:23:53;101794.47;;;2.07;87.99
43745;BME280;29359;53.048;8.732;2023-04-02T02:25:57;101793.59;;;2.06;87.92
43745;BME280;29359;53.048;8.732;2023-04-02T02:28:05;101803.16;;;2.07;87.87
43745;BME280;29359;53.048;8.732;2023-04-02T02:30:19;101810.06;;;2.05;88.00
43745;BME280;29359;53.048;8.732;2023-04-02T02:32:26;101808.34;;;2.06;87.70
43745;BME280;29359;53.048;8.732;2023-04-02T02:34:36;101808.31;;;2.04;87.97
43745;BME280;29359;53.048;8.732;2023-04-02T02:36:48;101819.56;;;2.03;87.32
43745;BME280;29359;53.048;8.732;2023-04-02T02:41:19;101828.22;;;2.02;87.80
43745;BME280;29359;53.048;8.732;2023-04-02T02:43:25;101837.75;;;2.02;87.90
43745;BME280;29359;53.048;8.732;2023-04-02T02:45:30;101836.91;;;2.03;87.45
43745;BME280;29359;53.048;8.732;2023-04-02T02:47:36;101843.00;;;2.03;87.24
43745;BME280;29359;53.048;8.732;2023-04-02T02:49:43;101843.78;;;1.99;87.40
43745;BME280;29359;53.048;8.732;2023-04-02T02:51:51;101848.97;;;1.98;87.43
43745;BME280;29359;53.048;8.732;2023-04-02T02:53:59;101847.19;;;1.97;87.72
43745;BME280;29359;53.048;8.732;2023-04-02T02:56:03;101854.09;;;1.95;87.40
43745;BME280;29359;53.048;8.732;2023-04-02T02:58:09;101858.47;;;1.96;87.27
43745;BME280;29359;53.048;8.732;2023-04-02T03:00:12;101856.66;;;1.93;87.69
43745;BME280;29359;53.048;8.732;2023-04-02T03:02:16;101863.56;;;1.91;87.30
43745;BME280;29359;53.048;8.732;2023-04-02T03:04:22;101866.97;;;1.88;87.31
43745;BME280;29359;53.048;8.732;2023-04-02T03:06:24;101867.72;;;1.83;87.50
43745;BME280;29359;53.048;8.732;2023-04-02T03:08:34;101871.13;;;1.80;87.58
43745;BME280;29359;53.048;8.732;2023-04-02T03:10:44;101877.13;;;1.78;87.70
43745;BME280;29359;53.048;8.732;2023-04-02T03:15:33;101876.91;;;1.70;87.97
43745;BME280;29359;53.048;8.732;2023-04-02T03:17:41;101885.50;;;1.66;88.18
43745;BME280;29359;53.048;8.732;2023-04-02T03:20:03;101885.38;;;1.62;87.71
43745;BME280;29359;53.048;8.732;2023-04-02T03:22:17;101896.63;;;1.61;88.23
43745;BME280;29359;53.048;8.732;2023-04-02T03:24:35;101900.88;;;1.57;87.72
43745;BME280;29359;53.048;8.732;2023-04-02T03:26:42;101907.75;;;1.53;88.03
43745;BME280;29359;53.048;8.732;2023-04-02T03:28:54;101905.94;;;1.51;88.14
43745;BME280;29359;53.048;8.732;2023-04-02T03:31:02;101908.53;;;1.51;88.21
43745;BME280;29359;53.048;8.732;2023-04-02T03:33:13;101909.34;;;1.48;88.45
43745;BME280;29359;53.048;8.732;2023-04-02T03:35:19;101913.63;;;1.46;88.59
43745;BME280;29359;53.048;8.732;2023-04-02T03:37:24;101915.28;;;1.43;88.01
43745;BME280;29359;53.048;8.732;2023-04-02T03:39:54;101923.97;;;1.43;88.43
43745;BME280;29359;53.048;8.732;2023-04-02T03:42:06;101930.84;;;1.41;88.33
43745;BME280;29359;53.048;8.732;2023-04-02T03:44:25;101929.94;;;1.39;88.37
43745;BME280;29359;53.048;8.732;2023-04-02T03:46:30;101935.06;;;1.36;88.58
43745;BME280;29359;53.048;8.732;2023-04-02T03:48:44;101938.50;;;1.35;87.89
43745;BME280;29359;53.048;8.732;2023-04-02T03:52:52;101948.03;;;1.35;88.38
43745;BME280;29359;53.048;8.732;2023-04-02T03:54:56;101948.84;;;1.34;88.49
43745;BME280;29359;53.048;8.732;2023-04-02T03:56:58;101951.47;;;1.34;87.95
43745;BME280;29359;53.048;8.732;2023-04-02T04:01:37;101966.19;;;1.33;88.54
43745;BME280;29359;53.048;8.732;2023-04-02T04:03:51;101963.59;;;1.33;87.85
43745;BME280;29359;53.048;8.732;2023-04-02T04:08:13;101973.06;;;1.31;87.77
43745;BME280;29359;53.048;8.732;2023-04-02T04:10:22;101970.47;;;1.31;87.89
43745;BME280;29359;53.048;8.732;2023-04-02T04:12:41;101977.44;;;1.32;87.80
43745;BME280;29359;53.048;8.732;2023-04-02T04:14:49;101979.91;;;1.29;87.54
43745;BME280;29359;53.048;8.732;2023-04-02T04:19:20;101994.66;;;1.29;87.76
43745;BME280;29359;53.048;8.732;2023-04-02T04:21:26;101991.13;;;1.26;87.85
43745;BME280;29359;53.048;8.732;2023-04-02T04:23:34;102000.66;;;1.26;87.45
43745;BME280;29359;53.048;8.732;2023-04-02T04:25:37;102004.03;;;1.23;87.76
43745;BME280;29359;53.048;8.732;2023-04-02T04:28:00;102005.75;;;1.23;87.79
43745;BME280;29359;53.048;8.732;2023-04-02T04:30:44;102019.59;;;1.22;87.61
43745;BME280;29359;53.048;8.732;2023-04-02T04:32:53;102023.13;;;1.24;87.66
43745;BME280;29359;53.048;8.732;2023-04-02T04:35:04;102028.34;;;1.24;87.68
43745;BME280;29359;53.048;8.732;2023-04-02T04:37:16;102027.44;;;1.23;87.28
43745;BME280;29359;53.048;8.732;2023-04-02T04:41:43;102039.56;;;1.23;87.06
43745;BME280;29359;53.048;8.732;2023-04-02T04:44:03;102040.47;;;1.23;87.23
43745;BME280;29359;53.048;8.732;2023-04-02T04:46:10;102043.06;;;1.23;87.25
43745;BME280;29359;53.048;8.732;2023-04-02T04:50:57;102052.53;;;1.21;86.82
43745;BME280;29359;53.048;8.732;2023-04-02T04:53:11;102056.84;;;1.21;87.33
43745;BME280;29359;53.048;8.732;2023-04-02T04:55:36;102057.66;;;1.18;86.95
43745;BME280;29359;53.048;8.732;2023-04-02T04:57:40;102063.69;;;1.17;86.96
43745;BME280;29359;53.048;8.732;2023-04-02T04:59:48;102065.41;;;1.17;86.96
43745;BME280;29359;53.048;8.732;2023-04-02T05:02:04;102076.66;;;1.16;87.15
43745;BME280;29359;53.048;8.732;2023-04-02T05:04:21;102080.09;;;1.15;87.05
43745;BME280;29359;53.048;8.732;2023-04-02T05:06:47;102079.16;;;1.13;86.99
43745;BME280;29359;53.048;8.732;2023-04-02T05:08:54;102089.56;;;1.13;86.82
43745;BME280;29359;53.048;8.732;2023-04-02T05:10:59;102092.16;;;1.13;86.46
43745;BME280;29359;53.048;8.732;2023-04-02T05:13:22;102099.13;;;1.14;86.99
43745;BME280;29359;53.048;8.732;2023-04-02T05:15:37;102105.25;;;1.16;86.48
43745;BME280;29359;53.048;8.732;2023-04-02T05:18:07;102110.47;;;1.16;86.47
43745;BME280;29359;53.048;8.732;2023-04-02T05:20:23;102118.28;;;1.16;86.66
43745;BME280;29359;53.048;8.732;2023-04-02T05:22:51;102122.63;;;1.17;86.62
43745;BME280;29359;53.048;8.732;2023-04-02T05:25:24;102127.03;;;1.19;86.61
43745;BME280;29359;53.048;8.732;2023-04-02T05:29:40;102133.31;;;1.26;86.34
43745;BME280;29359;53.048;8.732;2023-04-02T05:32:18;102137.81;;;1.30;85.88
43745;BME280;29359;53.048;8.732;2023-04-02T05:34:25;102137.81;;;1.30;85.61
43745;BME280;29359;53.048;8.732;2023-04-02T05:36:28;102143.94;;;1.32;85.52
43745;BME280;29359;53.048;8.732;2023-04-02T05:38:33;102149.22;;;1.35;85.22
43745;BME280;29359;53.048;8.732;2023-04-02T05:40:43;102154.53;;;1.38;85.39
43745;BME280;29359;53.048;8.732;2023-04-02T05:42:49;102165.03;;;1.41;85.31
43745;BME280;29359;53.048;8.732;2023-04-02T05:47:19;102170.50;;;1.50;84.65
43745;BME280;29359;53.048;8.732;2023-04-02T05:49:34;102165.31;;;1.50;84.58
43745;BME280;29359;53.048;8.732;2023-04-02T05:51:44;102175.81;;;1.53;84.41
43745;BME280;29359;53.048;8.732;2023-04-02T05:53:59;102175.88;;;1.56;84.54
43745;BME280;29359;53.048;8.732;2023-04-02T05:56:14;102181.09;;;1.56;83.64
43745;BME280;29359;53.048;8.732;2023-04-02T05:58:26;102188.94;;;1.58;84.22
43745;BME280;29359;53.048;8.732;2023-04-02T06:02:54;102199.50;;;1.63;84.27
43745;BME280;29359;53.048;8.732;2023-04-02T06:07:11;102200.50;;;1.68;83.47
43745;BME280;29359;53.048;8.732;2023-04-02T06:09:35;102208.41;;;1.71;83.77
43745;BME280;29359;53.048;8.732;2023-04-02T06:11:43;102203.25;;;1.72;83.46
43745;BME280;29359;53.048;8.732;2023-04-02T06:13:46;102216.41;;;1.75;83.34
43745;BME280;29359;53.048;8.732;2023-04-02T06:15:48;102218.19;;;1.78;83.07
43745;BME280;29359;53.048;8.732;2023-04-02T06:17:58;102221.75;;;1.80;83.07
43745;BME280;29359;53.048;8.732;2023-04-02T06:20:00;102226.28;;;1.87;83.16
43745;BME280;29359;53.048;8.732;2023-04-02T06:22:24;102233.38;;;1.93;82.61
43745;BME280;29359;53.048;8.732;2023-04-02T06:24:28;102242.03;;;1.92;82.85
43745;BME280;29359;53.048;8.732;2023-04-02T06:30:52;102250.16;;;2.02;82.30
43745;BME280;29359;53.048;8.732;2023-04-02T06:32:56;102253.56;;;2.00;82.41
43745;BME280;29359;53.048;8.732;2023-04-02T06:34:58;102255.56;;;2.08;82.20
43745;BME280;29359;53.048;8.732;2023-04-02T06:37:02;102267.78;;;2.11;81.75
43745;BME280;29359;53.048;8.732;2023-04-02T06:39:07;102269.53;;;2.12;82.05
43745;BME280;29359;53.048;8.732;2023-04-02T06:41:16;102272.09;;;2.10;82.04
43745;BME280;29359;53.048;8.732;2023-04-02T06:43:26;102270.59;;;2.17;81.85
43745;BME280;29359;53.048;8.732;2023-04-02T06:45:37;102271.81;;;2.30;81.52
43745;BME280;29359;53.048;8.732;2023-04-02T06:47:43;102273.75;;;2.37;81.47
43745;BME280;29359;53.048;8.732;2023-04-02T06:50:12;102278.19;;;2.39;81.25
43745;BME280;29359;53.048;8.732;2023-04-02T06:52:25;102271.31;;;2.43;80.82
43745;BME280;29359;53.048;8.732;2023-04-02T06:54:28;102284.41;;;2.44;80.94
43745;BME280;29359;53.048;8.732;2023-04-02T06:58:37;102291.66;;;2.56;80.58
43745;BME280;29359;53.048;8.732;2023-04-02T07:00:41;102291.88;;;2.62;80.34
43745;BME280;29359;53.048;8.732;2023-04-02T07:02:43;102305.00;;;2.65;80.07
43745;BME280;29359;53.048;8.732;2023-04-02T07:04:45;102295.56;;;2.70;79.79
43745;BME280;29359;53.048;8.732;2023-04-02T07:06:46;102299.94;;;2.71;80.11
43745;BME280;29359;53.048;8.732;2023-04-02T07:08:48;102309.66;;;2.77;80.24
43745;BME280;29359;53.048;8.732;2023-04-02T07:10:50;102304.53;;;2.80;79.91
43745;BME280;29359;53.048;8.732;2023-04-02T07:12:51;102314.19;;;2.84;79.98
43745;BME280;29359;53.048;8.732;2023-04-02T07:14:53;102315.22;;;2.91;80.00
43745;BME280;29359;53.048;8.732;2023-04-02T07:16:54;102317.16;;;2.98;79.60
43745;BME280;29359;53.048;8.732;2023-04-02T07:18:56;102330.13;;;2.95;79.69
43745;BME280;29359;53.048;8.732;2023-04-02T07:21:02;102321.53;;;2.99;79.86
43745;BME280;29359;53.048;8.732;2023-04-02T07:23:03;102329.41;;;3.00;79.82
43745;BME280;29359;53.048;8.732;2023-04-02T07:25:05;102340.75;;;3.02;79.98
43745;BME280;29359;53.048;8.732;2023-04-02T07:27:09;102341.78;;;3.07;79.82
43745;BME280;29359;53.048;8.732;2023-04-02T07:29:14;102342.72;;;3.09;80.00
43745;BME280;29359;53.048;8.732;2023-04-02T07:31:21;102349.66;;;3.09;80.16
43745;BME280;29359;53.048;8.732;2023-04-02T07:33:27;102342.91;;;3.17;79.76
43745;BME280;29359;53.048;8.732;2023-04-02T07:35:29;102350.97;;;3.26;79.85
43745;BME280;29359;53.048;8.732;2023-04-02T07:37:30;102355.56;;;3.35;79.63
43745;BME280;29359;53.048;8.732;2023-04-02T07:39:32;102362.56;;;3.37;78.90
43745;BME280;29359;53.048;8.732;2023-04-02T07:41:57;102358.28;;;3.39;79.46
43745;BME280;29359;53.048;8.732;2023-04-02T07:43:59;102359.53;;;3.54;79.36
43745;BME280;29359;53.048;8.732;2023-04-02T07:46:01;102371.66;;;3.52;79.09
43745;BME280;29359;53.048;8.732;2023-04-02T07:48:05;102369.28;;;3.61;78.95
43745;BME280;29359;53.048;8.732;2023-04-02T07:50:07;102378.25;;;3.72;78.47
43745;BME280;29359;53.048;8.732;2023-04-02T07:52:10;102366.13;;;3.74;78.85
43745;BME280;29359;53.048;8.732;2023-04-02T07:54:12;102376.50;;;3.71;78.76
43745;BME280;29359;53.048;8.732;2023-04-02T07:56:14;102386.16;;;3.75;78.97
43745;BME280;29359;53.048;8.732;2023-04-02T07:58:16;102373.09;;;3.75;78.88
43745;BME280;29359;53.048;8.732;2023-04-02T08:00:18;102371.41;;;3.77;79.08
43745;BME280;29359;53.048;8.732;2023-04-02T08:02:21;102378.47;;;3.81;79.04
43745;BME280;29359;53.048;8.732;2023-04-02T08:04:23;102384.69;;;3.86;78.87
43745;BME280;29359;53.048;8.732;2023-04-02T08:06:24;102393.41;;;3.87;79.32
43745;BME280;29359;53.048;8.732;2023-04-02T08:08:26;102393.44;;;3.88;78.93
43745;BME280;29359;53.048;8.732;2023-04-02T08:10:28;102392.69;;;3.91;79.06
43745;BME280;29359;53.048;8.732;2023-04-02T08:12:29;102397.06;;;3.92;79.30
43745;BME280;29359;53.048;8.732;2023-04-02T08:14:30;102398.84;;;3.94;79.23
43745;BME280;29359;53.048;8.732;2023-04-02T08:18:46;102413.91;;;4.04;79.04
43745;BME280;29359;53.048;8.732;2023-04-02T08:20:48;102417.50;;;4.09;79.64
43745;BME280;29359;53.048;8.732;2023-04-02T08:22:49;102420.25;;;4.16;78.84
43745;BME280;29359;53.048;8.732;2023-04-02T08:24:51;102422.09;;;4.20;78.64
43745;BME280;29359;53.048;8.732;2023-04-02T08:26:53;102434.25;;;4.18;78.65
43745;BME280;29359;53.048;8.732;2023-04-02T08:28:55;102440.44;;;4.21;78.58
43745;BME280;29359;53.048;8.732;2023-04-02T08:30:56;102436.16;;;4.25;78.76
43745;BME280;29359;53.048;8.732;2023-04-02T08:32:58;102437.06;;;4.27;78.31
43745;BME280;29359;53.048;8.732;2023-04-02T08:34:59;102433.69;;;4.31;78.47
43745;BME280;29359;53.048;8.732;2023-04-02T08:37:01;102440.81;;;4.36;78.08
43745;BME280;29359;53.048;8.732;2023-04-02T08:39:03;102446.78;;;4.32;78.02
43745;BME280;29359;53.048;8.732;2023-04-02T08:41:06;102449.25;;;4.26;78.85
43745;BME280;29359;53.048;8.732;2023-04-02T08:43:29;102458.06;;;4.30;79.03
43745;BME280;29359;53.048;8.732;2023-04-02T08:48:20;102457.41;;;4.38;79.26
43745;BME280;29359;53.048;8.732;2023-04-02T08:52:35;102456.47;;;4.35;79.34
43745;BME280;29359;53.048;8.732;2023-04-02T08:54:37;102461.78;;;4.39;79.46
43745;BME280;29359;53.048;8.732;2023-04-02T08:56:51;102455.78;;;4.44;79.79
43745;BME280;29359;53.048;8.732;2023-04-02T08:58:58;102465.59;;;4.54;79.48
43745;BME280;29359;53.048;8.732;2023-04-02T09:01:04;102460.41;;;4.55;78.87
43745;BME280;29359;53.048;8.732;2023-04-02T09:03:09;102466.41;;;4.51;78.07
43745;BME280;29359;53.048;8.732;2023-04-02T09:05:22;102464.66;;;4.50;78.45
43745;BME280;29359;53.048;8.732;2023-04-02T09:07:26;102461.28;;;4.56;78.83
43745;BME280;29359;53.048;8.732;2023-04-02T09:09:34;102471.06;;;4.64;78.64
43745;BME280;29359;53.048;8.732;2023-04-02T09:11:48;102475.78;;;4.79;78.16
43745;BME280;29359;53.048;8.732;2023-04-02T09:14:00;102476.00;;;4.90;78.37
43745;BME280;29359;53.048;8.732;2023-04-02T09:16:08;102472.66;;;4.97;78.01
43745;BME280;29359;53.048;8.732;2023-04-02T09:18:16;102488.34;;;4.95;77.10
43745;BME280;29359;53.048;8.732;2023-04-02T09:20:21;102493.50;;;4.92;77.86
43745;BME280;29359;53.048;8.732;2023-04-02T09:22:31;102491.94;;;5.00;78.02
43745;BME280;29359;53.048;8.732;2023-04-02T09:24:34;102490.31;;;5.07;77.23
43745;BME280;29359;53.048;8.732;2023-04-02T09:26:35;102486.09;;;5.14;77.53
43745;BME280;29359;53.048;8.732;2023-04-02T09:28:37;102488.13;;;5.27;76.55
43745;BME280;29359;53.048;8.732;2023-04-02T09:31:02;102491.63;;;5.27;76.81
43745;BME280;29359;53.048;8.732;2023-04-02T09:33:07;102508.91;;;5.19;77.47
43745;BME280;29359;53.048;8.732;2023-04-02T09:35:15;102500.09;;;5.16;77.26
43745;BME280;29359;53.048;8.732;2023-04-02T09:37:40;102498.41;;;5.18;77.58
43745;BME280;29359;53.048;8.732;2023-04-02T09:39:42;102514.09;;;5.18;78.12
43745;BME280;29359;53.048;8.732;2023-04-02T09:41:45;102506.41;;;5.24;77.45
43745;BME280;29359;53.048;8.732;2023-04-02T09:46:32;102515.25;;;5.30;77.22
43745;BME280;29359;53.048;8.732;2023-04-02T09:48:58;102510.91;;;5.31;77.79
43745;BME280;29359;53.048;8.732;2023-04-02T09:51:19;102518.03;;;5.38;78.08
43745;BME280;29359;53.048;8.732;2023-04-02T09:53:36;102510.31;;;5.46;77.57
43745;BME280;29359;53.048;8.732;2023-04-02T09:55:40;102521.72;;;5.48;77.21
43745;BME280;29359;53.048;8.732;2023-04-02T09:57:42;102524.34;;;5.48;76.94
43745;BME280;29359;53.048;8.732;2023-04-02T09:59:44;102517.31;;;5.47;77.87
43745;BME280;29359;53.048;8.732;2023-04-02T10:03:57;102526.97;;;5.49;77.39
43745;BME280;29359;53.048;8.732;2023-04-02T10:06:05;102521.72;;;5.48;76.88
43745;BME280;29359;53.048;8.732;2023-04-02T10:08:19;102522.81;;;5.59;76.84
43745;BME280;29359;53.048;8.732;2023-04-02T10:10:27;102529.78;;;5.58;77.50
43745;BME280;29359;53.048;8.732;2023-04-02T10:12:40;102534.16;;;5.59;77.28
43745;BME280;29359;53.048;8.732;2023-04-02T10:14:45;102540.63;;;5.77;77.74
43745;BME280;29359;53.048;8.732;2023-04-02T10:16:57;102533.84;;;5.88;76.40
43745;BME280;29359;53.048;8.732;2023-04-02T10:19:05;102540.25;;;6.02;76.21
43745;BME280;29359;53.048;8.732;2023-04-02T10:21:20;102545.69;;;6.11;76.05
43745;BME280;29359;53.048;8.732;2023-04-02T10:23:26;102549.22;;;6.13;75.56
43745;BME280;29359;53.048;8.732;2023-04-02T10:25:31;102549.28;;;6.18;75.81
43745;BME280;29359;53.048;8.732;2023-04-02T10:27:50;102547.78;;;6.32;75.76
43745;BME280;29359;53.048;8.732;2023-04-02T10:34:24;102555.31;;;6.64;74.91
43745;BME280;29359;53.048;8.732;2023-04-02T10:38:54;102569.41;;;6.72;74.01
43745;BME280;29359;53.048;8.732;2023-04-02T10:45:49;102570.69;;;6.44;76.06
43745;BME280;29359;53.048;8.732;2023-04-02T10:48:00;102572.28;;;6.34;76.37
43745;BME280;29359;53.048;8.732;2023-04-02T10:50:26;102576.81;;;6.43;75.98
43745;BME280;29359;53.048;8.732;2023-04-02T10:52:34;102575.63;;;6.77;76.36
43745;BME280;29359;53.048;8.732;2023-04-02T10:54:43;102569.06;;;7.06;74.85
43745;BME280;29359;53.048;8.732;2023-04-02T10:56:46;102577.53;;;7.50;72.97
43745;BME280;29359;53.048;8.732;2023-04-02T10:58:54;102579.66;;;7.80;71.90
43745;BME280;29359;53.048;8.732;2023-04-02T11:01:03;102585.25;;;8.14;70.40
43745;BME280;29359;53.048;8.732;2023-04-02T11:03:13;102585.72;;;8.58;68.90
43745;BME280;29359;53.048;8.732;2023-04-02T11:05:24;102593.00;;;8.96;68.10
43745;BME280;29359;53.048;8.732;2023-04-02T11:07:30;102593.19;;;9.22;67.62
43745;BME280;29359;53.048;8.732;2023-04-02T11:09:38;102597.69;;;9.41;66.99
43745;BME280;29359;53.048;8.732;2023-04-02T11:11:44;102587.28;;;9.70;66.95
43745;BME280;29359;53.048;8.732;2023-04-02T11:15:54;102605.84;;;10.11;68.13
43745;BME280;29359;53.048;8.732;2023-04-02T11:17:56;102600.59;;;10.10;68.66
43745;BME280;29359;53.048;8.732;2023-04-02T11:23:11;102608.59;;;10.77;69.05
43745;BME280;29359;53.048;8.732;2023-04-02T11:25:20;102600.56;;;11.36;65.87
43745;BME280;29359;53.048;8.732;2023-04-02T11:27:30;102611.00;;;11.70;67.04
43745;BME280;29359;53.048;8.732;2023-04-02T11:29:35;102605.72;;;11.73;67.09
43745;BME280;29359;53.048;8.732;2023-04-02T11:31:38;102601.41;;;11.46;69.24
43745;BME280;29359;53.048;8.732;2023-04-02T11:33:41;102607.72;;;10.87;71.81
43745;BME280;29359;53.048;8.732;2023-04-02T11:35:47;102616.50;;;10.67;74.36
43745;BME280;29359;53.048;8.732;2023-04-02T11:37:48;102612.94;;;11.22;72.69
43745;BME280;29359;53.048;8.732;2023-04-02T11:39:51;102611.81;;;11.93;69.54
43745;BME280;29359;53.048;8.732;2023-04-02T11:42:20;102610.44;;;12.70;64.33
43745;BME280;29359;53.048;8.732;2023-04-02T11:44:23;102610.13;;;13.04;65.41
43745;BME280;29359;53.048;8.732;2023-04-02T11:48:31;102615.69;;;12.73;66.91
43745;BME280;29359;53.048;8.732;2023-04-02T11:50:44;102614.06;;;12.60;68.98
43745;BME280;29359;53.048;8.732;2023-04-02T11:55:00;102612.47;;;13.34;66.62
43745;BME280;29359;53.048;8.732;2023-04-02T12:11:13;102617.19;;;13.05;69.28
43745;BME280;29359;53.048;8.732;2023-04-02T12:13:54;102616.19;;;13.93;65.14
43745;BME280;29359;53.048;8.732;2023-04-02T12:15:58;102625.53;;;14.20;64.46
43745;BME280;29359;53.048;8.732;2023-04-02T12:18:16;102625.69;;;14.09;64.37
43745;BME280;29359;53.048;8.732;2023-04-02T12:20:22;102626.41;;;14.21;65.41
43745;BME280;29359;53.048;8.732;2023-04-02T12:22:30;102633.53;;;14.19;65.11
43745;BME280;29359;53.048;8.732;2023-04-02T12:24:32;102628.78;;;13.76;67.07
43745;BME280;29359;53.048;8.732;2023-04-02T12:26:36;102644.84;;;13.65;67.02
43745;BME280;29359;53.048;8.732;2023-04-02T12:28:38;102647.38;;;13.74;66.91
43745;BME280;29359;53.048;8.732;2023-04-02T12:30:40;102636.56;;;13.91;66.33
43745;BME280;29359;53.048;8.732;2023-04-02T12:32:42;102644.38;;;14.02;64.98
43745;BME280;29359;53.048;8.732;2023-04-02T12:34:44;102647.84;;;14.07;65.80
43745;BME280;29359;53.048;8.732;2023-04-02T12:37:15;102651.97;;;14.29;64.47
43745;BME280;29359;53.048;8.732;2023-04-02T12:39:15;102656.69;;;14.70;62.98
43745;BME280;29359;53.048;8.732;2023-04-02T12:41:26;102651.16;;;14.84;62.47
43745;BME280;29359;53.048;8.732;2023-04-02T12:43:32;102657.13;;;14.97;61.24
43745;BME280;29359;53.048;8.732;2023-04-02T12:45:34;102649.84;;;15.08;61.01
43745;BME280;29359;53.048;8.732;2023-04-02T12:47:36;102654.19;;;15.12;61.20
43745;BME280;29359;53.048;8.732;2023-04-02T12:49:40;102655.94;;;15.15;60.38
43745;BME280;29359;53.048;8.732;2023-04-02T12:51:43;102646.94;;;15.23;60.88
43745;BME280;29359;53.048;8.732;2023-04-02T12:53:49;102655.38;;;15.45;58.83
43745;BME280;29359;53.048;8.732;2023-04-02T12:55:52;102659.16;;;15.33;59.90
43745;BME280;29359;53.048;8.732;2023-04-02T12:57:55;102656.59;;;15.27;60.16
43745;BME280;29359;53.048;8.732;2023-04-02T13:02:30;102649.66;;;15.20;59.91
43745;BME280;29359;53.048;8.732;2023-04-02T13:04:45;102654.03;;;15.23;60.92
43745;BME280;29359;53.048;8.732;2023-04-02T13:06:49;102663.09;;;15.11;60.35